Airfield :







YOU CAN JOIN US ON...

 
LOGIN :

Register | Disclaimer

   EN    FR    IT 

 









Legend :    VFR   Marginal VFR   IFR   Intensive IFR   Very Intensive IFR
Visi :
Ceiling :
>= 8 km
>= 3000ft
5 to 8 km
1000 to 3000 ft
1500m to 5 km
500 to 1000 ft
800 to 1500m
200 to 500 ft
< 800m
< 200 ft
Symbols :   Thunderstorms  Fog  Heavy snow  Heavy precipitations  Wind > 20 kt






- Airport Elevation : 35 ft
- IATA code : YGR


CYGR - ëles-de-la-Madeleine

CURRENT METAR :
  • 112200Z 32010KT 15SM -SN OVC033 M04/M10 A3014 RMK SC8 SLP207

EXPIRED METARs :
  • 112150Z 31008KT 15SM -SN OVC031 M04/M10 A3014 RMK SC8 SLP208
  • 112100Z 33010KT 15SM BKN033 OVC076 M04/M10 A3012 RMK SC6AC2 SLP200
  • 112000Z 32011KT 20SM BKN032 BKN075 M04/M09 A3011 RMK SC6AC1 SLP197

TAF TAF CYGR
Valid from the 11 at 20:00 until the 12 at 03:00 UTC


111938Z 1120/1203 33010G20KT P6SM BKN030 OVC130
TEMPO 1120/1123 4SM -SN OVC020
FM112300 31010KT P6SM SCT025 BKN200
TEMPO 1123/1203 21/2SM -SN OVC020 RMK NXT FCST WILL BE ISSUED AT 121145Z



MET'MAP, your aeronautical weather chart ! - Copyright ORBIFLY December 2007 - Disclaimer

ORBIFLY MET'MAP TEAM :

Programming & Development : Alexandra Zaïnal
Concept & original design : Baudouin d'Aumeries
Assistance for programming : Marc-Olivier Méhu
Technical & hardware support : Manuel Goepfert

Contact : metmap@orbifly.com




SOURCES & CREDITS :

   NOAA